Flugplatz Günzburg-Donauried (EDMG)

Hier findest Du alle Informationen zum Flugplatz Günzburg-Donauried (EDMG).

Informationen für Piloten zum Flugplatz Günzburg-Donauried

Hier findest Du alle relevanten Informationen, die Du als Pilot benötigst, um Günzburg-Donauried anzufliegen.

Flugplatz: Günzburg-Donauried ICAO-Code: EDMG
Frequenz Turm: 118,125 Mhz GAFOR Gebiet: 73
Frequenz Ground: 118,125 Mhz Mogas: nein
Platzrunde: N 2200 ft Landegebühr: -
Platzhöhe: - Sunrise: 07:01 Uhr UTC
Pisten: 06/24 - 580 m x 30 m, GRAS Sunset: 15:25 Uhr UTC

Flugwetter am Flugplatz Günzburg-Donauried

Die METAR Information stammen aus EDMA (48.21 km entfernt).

METAR Code:
2019/11/28 09:20
EDMA 280920Z 23016G27KT CAVOK 10/05 Q1000

Flugschulen am Flugplatz Günzburg-Donauried

Am Flugplatz Günzburg-Donauried gibt es leider keine Flugschule.

Benachbarte Flugplätze und Flugschulen

Es gibt 26 weitere Flugplätze in einem Umkreis von 50 km um den Flugplatz Günzburg-Donauried.

Jetzt anmelden

Passwort vergessen

Umfrage Archiv

Lasst Ihr Euch bei Überlandflügen von FIS begleiten?

Ja, immer!
44.8 %
Ja, unregelmäßig!
29.9 %
Ja, aber nur selten!
20.7 %
Nein, nie!
4.6 %
Stimmen: 87 | Diskussion
Anzeige: Roland Aircraft
Statistik Alle Mitglieder

Aktuell sind 40 Besucher online, davon 1 Mitglied und 39 Gäste.


Mitglieder online:
Moskito_Andi 

Anzeige: VFR Sprechfunk Simulator


Anzeige: Pocket FMS